createdAt,value
2019-03-18T00:00:32.975Z,66.36
2019-03-18T00:03:02.946Z,66.46
2019-03-18T00:05:32.564Z,65.61
2019-03-18T00:08:02.527Z,65.62
2019-03-18T00:10:33.104Z,67.37
2019-03-18T00:13:02.717Z,65.97
2019-03-18T00:15:32.364Z,66.44
2019-03-18T00:18:01.981Z,67.33
2019-03-18T00:20:31.621Z,67.80
2019-03-18T00:23:01.235Z,65.97
2019-03-18T00:25:30.876Z,65.91
2019-03-18T00:28:00.486Z,67.51
2019-03-18T00:30:30.124Z,66.76
2019-03-18T00:32:59.737Z,66.99
2019-03-18T00:35:29.373Z,66.56
2019-03-18T00:37:58.989Z,66.35
2019-03-18T00:40:28.633Z,65.93
2019-03-18T00:42:58.245Z,66.36
2019-03-18T00:45:27.891Z,66.50
2019-03-18T00:47:57.575Z,66.73
2019-03-18T00:50:27.190Z,66.39
2019-03-18T00:52:56.828Z,66.47
2019-03-18T00:55:26.449Z,66.27
2019-03-18T00:57:56.075Z,65.82
2019-03-18T01:00:25.699Z,66.32
2019-03-18T01:02:55.333Z,65.62
2019-03-18T01:05:25.015Z,66.23
2019-03-18T01:07:54.658Z,65.81
2019-03-18T01:10:24.273Z,65.89
2019-03-18T01:12:53.911Z,66.51
2019-03-18T01:15:28.434Z,67.06
2019-03-18T01:17:54.891Z,66.34
2019-03-18T01:20:24.508Z,67.19
2019-03-18T01:22:54.148Z,66.79
2019-03-18T01:25:23.754Z,67.24
2019-03-18T01:27:53.366Z,66.51
2019-03-18T01:30:23.002Z,66.80
2019-03-18T01:32:52.623Z,67.11
2019-03-18T01:35:22.334Z,67.32
2019-03-18T01:37:51.945Z,66.96
2019-03-18T01:40:21.658Z,67.49
2019-03-18T01:42:51.272Z,67.09
2019-03-18T01:45:20.910Z,67.67
2019-03-18T01:47:50.524Z,66.85
2019-03-18T01:50:20.231Z,66.87
2019-03-18T01:52:49.851Z,66.83
2019-03-18T01:55:19.486Z,67.19
2019-03-18T01:57:49.096Z,66.94
2019-03-18T02:00:18.735Z,67.01
2019-03-18T02:02:48.348Z,66.52
2019-03-18T02:05:17.961Z,67.04
2019-03-18T02:07:47.642Z,67.36
2019-03-18T02:10:17.877Z,67.63
2019-03-18T02:12:47.544Z,68.00
2019-03-18T02:15:17.396Z,68.79
2019-03-18T02:17:47.038Z,69.21
2019-03-18T02:20:19.583Z,68.51
2019-03-18T02:22:49.123Z,68.32
2019-03-18T02:25:18.734Z,68.96
2019-03-18T02:27:48.380Z,68.98
2019-03-18T02:30:21.430Z,68.77
2019-03-18T02:32:51.291Z,69.16
2019-03-18T02:35:20.910Z,67.38
2019-03-18T02:37:50.579Z,66.98
2019-03-18T02:40:20.235Z,67.10
2019-03-18T02:42:49.856Z,66.83
2019-03-18T02:45:19.571Z,67.32
2019-03-18T02:47:52.059Z,67.03
2019-03-18T02:50:21.690Z,67.78
2019-03-18T02:52:51.301Z,68.69
2019-03-18T02:55:20.935Z,67.37
2019-03-18T02:57:50.549Z,68.09
2019-03-18T03:00:20.223Z,68.30
2019-03-18T03:02:49.821Z,68.35
2019-03-18T03:05:19.447Z,68.52
2019-03-18T03:07:49.060Z,68.30
2019-03-18T03:10:18.827Z,69.02
2019-03-18T03:12:48.443Z,67.85
2019-03-18T03:15:18.111Z,69.51
2019-03-18T03:17:47.717Z,68.54
2019-03-18T03:20:17.394Z,68.54
2019-03-18T03:22:47.033Z,69.12
2019-03-18T03:25:16.646Z,69.51
2019-03-18T03:27:46.286Z,68.44
2019-03-18T03:30:16.477Z,68.23
2019-03-18T03:32:46.251Z,68.32
2019-03-18T03:35:15.912Z,68.50
2019-03-18T03:37:45.634Z,68.16
2019-03-18T03:40:15.374Z,68.53
2019-03-18T03:42:45.026Z,68.63
2019-03-18T03:45:17.791Z,68.03
2019-03-18T03:47:47.475Z,67.12
2019-03-18T03:50:17.261Z,67.64
2019-03-18T03:52:46.899Z,67.42
2019-03-18T03:55:16.521Z,68.33
2019-03-18T03:57:46.296Z,68.06
2019-03-18T04:00:16.512Z,67.84
2019-03-18T04:02:46.300Z,68.76
2019-03-18T04:05:15.897Z,68.25
2019-03-18T04:07:45.623Z,68.86
2019-03-18T04:10:15.962Z,68.99
2019-03-18T04:12:45.568Z,67.25
2019-03-18T04:15:16.418Z,68.23
2019-03-18T04:17:46.027Z,68.87
2019-03-18T04:20:18.880Z,67.88
2019-03-18T04:22:48.499Z,67.40
2019-03-18T04:25:18.197Z,68.31
2019-03-18T04:27:47.822Z,67.43
2019-03-18T04:30:17.527Z,67.06
2019-03-18T04:32:47.140Z,67.70
2019-03-18T04:35:16.777Z,66.64
2019-03-18T04:37:46.389Z,67.64
2019-03-18T04:40:16.026Z,67.78
2019-03-18T04:42:45.646Z,67.47
2019-03-18T04:45:15.280Z,67.71
2019-03-18T04:47:44.887Z,67.90
2019-03-18T04:50:15.067Z,66.94
2019-03-18T04:52:44.735Z,66.91
2019-03-18T04:55:14.391Z,68.11
2019-03-18T04:57:44.008Z,68.20
2019-03-18T05:00:14.974Z,68.95
2019-03-18T05:02:44.595Z,68.75
2019-03-18T05:05:14.276Z,69.72
2019-03-18T05:07:43.983Z,69.59
2019-03-18T05:10:13.773Z,69.71
2019-03-18T05:12:43.411Z,70.12
2019-03-18T05:15:13.234Z,70.50
2019-03-18T05:17:42.866Z,69.85
2019-03-18T05:20:13.026Z,69.71
2019-03-18T05:22:42.713Z,70.09
2019-03-18T05:25:12.495Z,69.83
2019-03-18T05:27:42.133Z,69.74
2019-03-18T05:30:14.824Z,69.68
2019-03-18T05:32:44.457Z,69.53
2019-03-18T05:35:14.145Z,69.66
2019-03-18T05:37:43.789Z,69.58
2019-03-18T05:40:13.458Z,69.36
2019-03-18T05:42:43.214Z,68.93
2019-03-18T05:45:13.263Z,68.70
2019-03-18T05:47:42.865Z,69.52
2019-03-18T05:50:12.877Z,69.05
2019-03-18T05:52:42.488Z,69.61
2019-03-18T05:55:12.201Z,70.00
2019-03-18T05:57:41.817Z,70.08
2019-03-18T06:00:15.214Z,69.45
2019-03-18T06:02:47.044Z,70.12
2019-03-18T06:05:16.249Z,70.52
2019-03-18T06:07:45.858Z,71.51
2019-03-18T06:10:15.672Z,71.16
2019-03-18T06:12:45.292Z,70.32
2019-03-18T06:15:15.099Z,70.66
2019-03-18T06:17:52.351Z,70.73
2019-03-18T06:20:16.050Z,70.73
2019-03-18T06:22:45.684Z,70.20
2019-03-18T06:25:15.303Z,70.25
2019-03-18T06:27:44.947Z,69.84
2019-03-18T06:30:16.766Z,70.02
2019-03-18T06:32:46.403Z,70.85
2019-03-18T06:35:16.016Z,70.43
2019-03-18T06:37:45.653Z,69.63
2019-03-18T06:40:16.098Z,69.83
2019-03-18T06:42:45.836Z,68.81
2019-03-18T06:45:15.413Z,68.81
2019-03-18T06:47:45.047Z,68.44
2019-03-18T06:50:14.897Z,68.70
2019-03-18T06:52:44.550Z,68.92
2019-03-18T06:55:14.236Z,68.96
2019-03-18T06:57:43.844Z,68.52
2019-03-18T07:00:15.993Z,68.75
2019-03-18T07:02:45.601Z,68.33
2019-03-18T07:05:15.511Z,68.91
2019-03-18T07:07:45.116Z,68.85
2019-03-18T07:10:15.291Z,68.80
2019-03-18T07:12:44.909Z,68.65
2019-03-18T07:15:14.611Z,67.32
2019-03-18T07:17:44.223Z,68.07
2019-03-18T07:20:15.095Z,67.74
2019-03-18T07:22:44.706Z,68.21
2019-03-18T07:25:14.414Z,68.32
2019-03-18T07:27:44.041Z,67.38
2019-03-18T07:30:15.495Z,67.54
2019-03-18T07:32:45.195Z,66.92
2019-03-18T07:35:14.871Z,66.83
2019-03-18T07:37:44.600Z,66.47
2019-03-18T07:40:16.912Z,65.63
2019-03-18T07:42:46.618Z,66.11
2019-03-18T07:45:16.574Z,66.54
2019-03-18T07:47:46.223Z,66.09
2019-03-18T07:50:16.681Z,65.08
2019-03-18T07:52:46.316Z,65.58
2019-03-18T07:55:15.927Z,65.91
2019-03-18T07:57:45.729Z,64.82
2019-03-18T08:00:16.452Z,65.01
2019-03-18T08:02:46.115Z,64.14
2019-03-18T08:05:15.702Z,64.85
2019-03-18T08:07:45.427Z,64.49
2019-03-18T08:10:15.645Z,64.01
2019-03-18T08:12:45.284Z,64.04
2019-03-18T08:15:15.230Z,63.47
2019-03-18T08:17:44.872Z,64.23
2019-03-18T08:20:14.993Z,63.72
2019-03-18T08:22:44.607Z,62.96
2019-03-18T08:25:14.310Z,62.97
2019-03-18T08:27:43.923Z,63.35
2019-03-18T08:30:19.467Z,62.43
2019-03-18T08:32:49.086Z,62.36
2019-03-18T08:35:18.714Z,61.65
2019-03-18T08:37:48.396Z,61.08
2019-03-18T08:40:18.107Z,61.34
2019-03-18T08:42:47.716Z,61.97
2019-03-18T08:45:17.428Z,62.95
2019-03-18T08:47:47.034Z,63.80
2019-03-18T08:50:16.675Z,64.67
2019-03-18T08:52:46.293Z,65.15
2019-03-18T08:55:15.948Z,66.12
2019-03-18T08:57:45.550Z,67.64
2019-03-18T09:00:19.125Z,67.25
2019-03-18T09:02:48.740Z,67.00
2019-03-18T09:05:18.373Z,67.06
2019-03-18T09:07:49.134Z,67.92
2019-03-18T09:10:19.348Z,66.77
2019-03-18T09:12:48.960Z,66.18
2019-03-18T09:15:18.574Z,65.67
2019-03-18T09:17:48.206Z,64.91
2019-03-18T09:20:19.425Z,65.42
2019-03-18T09:22:49.063Z,63.82
2019-03-18T09:25:18.814Z,64.45
2019-03-18T09:27:48.448Z,64.65
2019-03-18T09:30:19.868Z,63.71
2019-03-18T09:32:49.816Z,63.52
2019-03-18T09:35:19.427Z,64.38
2019-03-18T09:37:49.061Z,64.72
2019-03-18T09:40:19.178Z,63.71
2019-03-18T09:42:48.795Z,62.94
2019-03-18T09:45:19.542Z,63.08
2019-03-18T09:47:49.158Z,61.96
2019-03-18T09:50:19.095Z,61.59
2019-03-18T09:52:48.777Z,62.43
2019-03-18T09:55:18.411Z,61.90
2019-03-18T09:57:48.020Z,61.17
2019-03-18T10:00:22.017Z,60.11
2019-03-18T10:02:51.633Z,59.65
2019-03-18T10:05:21.341Z,60.39
2019-03-18T10:07:50.951Z,59.21
2019-03-18T10:10:20.591Z,56.78
2019-03-18T10:12:50.198Z,57.42
2019-03-18T10:15:23.148Z,55.83
2019-03-18T10:17:52.839Z,55.32
2019-03-18T10:20:22.522Z,54.25
2019-03-18T10:22:52.160Z,54.52
2019-03-18T10:25:21.774Z,54.68
2019-03-18T10:27:51.422Z,55.03
2019-03-18T10:30:21.043Z,55.35
2019-03-18T10:32:50.681Z,55.48
2019-03-18T10:35:20.298Z,57.42
2019-03-18T10:37:49.943Z,59.16
2019-03-18T10:40:19.556Z,60.06
2019-03-18T10:42:49.193Z,61.20
2019-03-18T10:45:18.801Z,62.44
2019-03-18T10:47:48.441Z,63.22
2019-03-18T10:50:19.066Z,64.39
2019-03-18T10:52:48.741Z,65.03
2019-03-18T10:55:18.455Z,63.76
2019-03-18T10:57:48.062Z,63.48
2019-03-18T11:00:21.091Z,64.01
2019-03-18T11:02:50.747Z,64.64
2019-03-18T11:05:20.366Z,63.89
2019-03-18T11:07:51.851Z,65.81
2019-03-18T11:10:21.478Z,66.36
2019-03-18T11:12:51.088Z,66.71
2019-03-18T11:15:22.541Z,67.59
2019-03-18T11:17:52.150Z,67.63
2019-03-18T11:20:21.790Z,67.55
2019-03-18T11:22:51.399Z,68.45
2019-03-18T11:25:21.105Z,67.66
2019-03-18T11:27:50.736Z,68.05
2019-03-18T11:30:21.417Z,68.11
2019-03-18T11:32:51.027Z,67.76
2019-03-18T11:35:20.640Z,67.45
2019-03-18T11:37:50.287Z,67.81
2019-03-18T11:40:22.104Z,67.91
2019-03-18T11:42:51.805Z,67.79
2019-03-18T11:45:21.556Z,66.02
2019-03-18T11:47:51.201Z,63.84
2019-03-18T11:50:21.649Z,62.51
2019-03-18T11:52:51.280Z,63.91
2019-03-18T11:55:28.367Z,65.37
2019-03-18T11:57:58.005Z,66.65
2019-03-18T12:00:28.519Z,66.57
2019-03-18T12:02:58.168Z,66.35
2019-03-18T12:05:29.885Z,65.28
2019-03-18T12:07:59.533Z,64.62
2019-03-18T12:10:29.210Z,64.42
2019-03-18T12:12:58.824Z,63.29
2019-03-18T12:15:29.163Z,61.11
2019-03-18T12:17:58.838Z,62.73
2019-03-18T12:20:28.599Z,61.49
2019-03-18T12:22:58.274Z,61.11
2019-03-18T12:25:27.978Z,61.21
2019-03-18T12:27:57.605Z,60.95
2019-03-18T12:30:28.576Z,60.99
2019-03-18T12:32:58.191Z,61.17
2019-03-18T12:35:27.830Z,61.14
2019-03-18T12:37:57.611Z,60.35
2019-03-18T12:40:27.402Z,60.81
2019-03-18T12:42:57.037Z,58.93
2019-03-18T12:45:26.654Z,58.31
2019-03-18T12:47:56.289Z,58.92
2019-03-18T12:50:55.275Z,58.41
2019-03-18T12:52:58.110Z,56.25
2019-03-18T12:55:27.832Z,54.96
2019-03-18T12:57:57.495Z,52.63
2019-03-18T13:00:33.546Z,51.40
2019-03-18T13:03:03.203Z,48.65
2019-03-18T13:05:32.821Z,49.16
2019-03-18T13:08:02.513Z,49.23
2019-03-18T13:10:32.135Z,49.69
2019-03-18T13:13:01.843Z,49.82
2019-03-18T13:15:31.460Z,50.27
2019-03-18T13:18:01.170Z,50.25
2019-03-18T13:20:30.791Z,48.89
2019-03-18T13:23:00.480Z,48.55
2019-03-18T13:25:30.146Z,47.60
2019-03-18T13:28:00.067Z,47.89
2019-03-18T13:30:29.786Z,48.36
2019-03-18T13:33:04.546Z,47.02
2019-03-18T13:35:34.297Z,47.15
2019-03-18T13:38:04.070Z,47.40
2019-03-18T13:40:33.704Z,47.91
2019-03-18T13:43:03.326Z,47.79
2019-03-18T13:45:32.970Z,46.58
2019-03-18T13:48:02.594Z,46.33
2019-03-18T13:50:32.416Z,46.70
2019-03-18T13:53:02.044Z,45.79
2019-03-18T13:55:31.683Z,45.99
2019-03-18T13:58:01.365Z,45.83
2019-03-18T14:00:31.470Z,47.53
2019-03-18T14:03:01.334Z,47.99
2019-03-18T14:05:31.125Z,49.33
2019-03-18T14:08:01.473Z,48.37
2019-03-18T14:10:31.393Z,48.30
2019-03-18T14:13:01.101Z,48.95
2019-03-18T14:15:30.713Z,49.32
2019-03-18T14:18:00.357Z,49.45
2019-03-18T14:20:30.746Z,48.92
2019-03-18T14:23:00.443Z,48.94
2019-03-18T14:25:30.059Z,49.65
2019-03-18T14:27:59.694Z,49.26
2019-03-18T14:30:29.314Z,49.70
2019-03-18T14:32:59.024Z,49.38
2019-03-18T14:35:28.637Z,49.78
2019-03-18T14:37:58.278Z,49.54
2019-03-18T14:40:27.889Z,49.54
2019-03-18T14:42:57.501Z,49.32
2019-03-18T14:45:27.201Z,49.11
2019-03-18T14:47:56.885Z,49.34
2019-03-18T14:50:26.518Z,49.06
2019-03-18T14:52:56.131Z,49.77
2019-03-18T14:55:25.833Z,49.49
2019-03-18T14:57:58.523Z,49.43
2019-03-18T15:00:31.540Z,49.44
2019-03-18T15:03:01.154Z,51.53
2019-03-18T15:05:30.964Z,56.78
2019-03-18T15:08:00.571Z,58.27
2019-03-18T15:10:33.105Z,60.12
2019-03-18T15:13:02.710Z,61.97
2019-03-18T15:15:32.371Z,63.68
2019-03-18T15:18:01.984Z,63.50
2019-03-18T15:20:31.598Z,61.77
2019-03-18T15:23:01.241Z,59.46
2019-03-18T15:25:36.318Z,58.92
2019-03-18T15:28:06.394Z,59.28
2019-03-18T15:30:36.150Z,58.57
2019-03-18T15:33:05.855Z,58.76
2019-03-18T15:35:35.478Z,58.83
2019-03-18T15:38:05.276Z,56.87
2019-03-18T15:40:34.966Z,55.92
2019-03-18T15:43:04.654Z,56.86
2019-03-18T15:45:34.307Z,55.02
2019-03-18T15:48:03.920Z,52.83
2019-03-18T15:50:33.569Z,48.38
2019-03-18T15:53:03.274Z,47.60
2019-03-18T15:55:32.924Z,47.44
2019-03-18T15:58:02.562Z,46.17
2019-03-18T16:00:33.610Z,43.24
2019-03-18T16:03:03.348Z,44.95
2019-03-18T16:05:32.986Z,47.78
2019-03-18T16:08:02.610Z,49.74
2019-03-18T16:10:32.260Z,49.49
2019-03-18T16:13:01.873Z,52.13
2019-03-18T16:15:31.520Z,52.93
2019-03-18T16:18:01.209Z,53.57
2019-03-18T16:20:30.833Z,53.51
2019-03-18T16:23:00.481Z,55.79
2019-03-18T16:25:30.098Z,57.20
2019-03-18T16:27:59.734Z,57.87
2019-03-18T16:30:29.348Z,58.44
2019-03-18T16:32:58.987Z,60.18
2019-03-18T16:35:28.600Z,61.20
2019-03-18T16:37:58.234Z,61.93
2019-03-18T16:40:27.851Z,61.97
2019-03-18T16:42:57.489Z,62.66
2019-03-18T16:45:27.098Z,63.55
2019-03-18T16:47:56.753Z,62.90
2019-03-18T16:50:33.118Z,64.30
2019-03-18T16:53:02.757Z,63.91
2019-03-18T16:55:32.371Z,64.58
2019-03-18T16:58:01.988Z,64.66
2019-03-18T17:00:31.687Z,65.39
2019-03-18T17:03:01.295Z,65.16
2019-03-18T17:05:30.996Z,65.79
2019-03-18T17:08:00.615Z,65.51
2019-03-18T17:10:30.251Z,65.08
2019-03-18T17:12:59.865Z,65.89
2019-03-18T17:15:29.503Z,66.12
2019-03-18T17:17:59.117Z,65.61
2019-03-18T17:20:28.758Z,66.00
2019-03-18T17:22:58.371Z,66.04
2019-03-18T17:25:31.078Z,66.43
2019-03-18T17:28:00.762Z,67.48
2019-03-18T17:30:30.396Z,67.09
2019-03-18T17:33:00.007Z,67.33
2019-03-18T17:35:29.644Z,67.43
2019-03-18T17:37:59.261Z,68.35
2019-03-18T17:40:28.879Z,68.51
2019-03-18T17:42:58.515Z,68.45
2019-03-18T17:45:28.974Z,68.56
2019-03-18T17:47:58.606Z,68.47
2019-03-18T17:50:30.550Z,68.22
2019-03-18T17:53:03.586Z,68.18
2019-03-18T17:55:31.579Z,67.55
2019-03-18T17:58:01.235Z,67.24
2019-03-18T18:00:44.436Z,67.68
2019-03-18T18:03:14.072Z,67.99
2019-03-18T18:05:43.685Z,67.85
2019-03-18T18:08:13.325Z,67.99
2019-03-18T18:10:42.940Z,67.78
2019-03-18T18:13:12.595Z,68.20
2019-03-18T18:15:42.205Z,67.73
2019-03-18T18:18:11.892Z,68.31
2019-03-18T18:20:41.593Z,68.44
2019-03-18T18:23:14.570Z,67.99
2019-03-18T18:25:42.571Z,68.35
2019-03-18T18:28:12.187Z,67.83
2019-03-18T18:30:41.903Z,68.16
2019-03-18T18:33:11.509Z,68.49
2019-03-18T18:35:41.145Z,68.32
2019-03-18T18:38:10.758Z,68.08
2019-03-18T18:40:40.396Z,68.32
2019-03-18T18:43:10.006Z,68.46
2019-03-18T18:45:39.649Z,68.45
2019-03-18T18:48:09.268Z,67.86
2019-03-18T18:50:38.931Z,67.49
2019-03-18T18:53:08.547Z,67.11
2019-03-18T18:55:38.156Z,67.52
2019-03-18T18:58:07.787Z,67.68
2019-03-18T19:00:37.479Z,67.56
2019-03-18T19:03:07.182Z,67.71
2019-03-18T19:05:36.794Z,68.26
2019-03-18T19:08:06.494Z,68.15
2019-03-18T19:10:36.106Z,68.26
2019-03-18T19:13:05.825Z,68.32
2019-03-18T19:15:39.346Z,68.57
2019-03-18T19:18:08.982Z,67.68
2019-03-18T19:20:38.665Z,68.12
2019-03-18T19:23:08.307Z,67.72
2019-03-18T19:25:38.042Z,67.73
2019-03-18T19:28:08.152Z,68.12
2019-03-18T19:30:37.768Z,68.27
2019-03-18T19:33:07.423Z,68.10
2019-03-18T19:35:37.038Z,68.77
2019-03-18T19:38:06.654Z,68.48
2019-03-18T19:40:36.287Z,68.71
2019-03-18T19:43:05.898Z,68.14
2019-03-18T19:45:35.606Z,68.40
2019-03-18T19:48:05.299Z,68.19
2019-03-18T19:50:35.010Z,68.17
2019-03-18T19:53:04.690Z,67.53
2019-03-18T19:55:34.826Z,68.05
2019-03-18T19:58:04.527Z,67.78
2019-03-18T20:00:34.250Z,66.62
2019-03-18T20:03:04.022Z,67.37
2019-03-18T20:05:33.669Z,67.99
2019-03-18T20:08:03.380Z,68.15
2019-03-18T20:10:33.094Z,68.37
2019-03-18T20:13:04.791Z,67.67
2019-03-18T20:15:34.200Z,68.15
2019-03-18T20:18:04.051Z,67.45
2019-03-18T20:20:33.756Z,68.56
2019-03-18T20:23:03.400Z,68.43
2019-03-18T20:25:33.224Z,68.20
2019-03-18T20:28:03.654Z,67.88
2019-03-18T20:30:34.058Z,68.34
2019-03-18T20:33:05.542Z,68.30
2019-03-18T20:35:35.859Z,68.05
2019-03-18T20:38:06.321Z,67.09
2019-03-18T20:40:36.092Z,68.25
2019-03-18T20:43:06.646Z,68.53
2019-03-18T20:45:40.111Z,68.77
2019-03-18T20:48:10.019Z,68.98
2019-03-18T20:50:39.619Z,69.17
2019-03-18T20:53:09.263Z,69.26
2019-03-18T20:55:38.879Z,69.26
2019-03-18T20:58:08.549Z,68.47
2019-03-18T21:00:38.244Z,69.23
2019-03-18T21:03:07.940Z,69.78
2019-03-18T21:05:37.580Z,69.81
2019-03-18T21:08:07.369Z,70.21
2019-03-18T21:10:37.010Z,70.04
2019-03-18T21:13:06.741Z,69.51
2019-03-18T21:15:36.364Z,68.27
2019-03-18T21:18:05.975Z,68.74
2019-03-18T21:20:35.609Z,69.44
2019-03-18T21:23:05.227Z,70.19
2019-03-18T21:25:34.875Z,69.60
2019-03-18T21:28:04.621Z,69.79
2019-03-18T21:30:34.249Z,70.27
2019-03-18T21:33:03.960Z,68.99
2019-03-18T21:35:33.604Z,69.83
2019-03-18T21:38:03.225Z,69.99
2019-03-18T21:40:32.836Z,69.83
2019-03-18T21:43:02.485Z,68.80
2019-03-18T21:45:32.098Z,69.14
2019-03-18T21:48:01.820Z,68.18
2019-03-18T21:50:31.423Z,68.48
2019-03-18T21:53:01.062Z,68.62
2019-03-18T21:55:30.670Z,69.86
2019-03-18T21:58:00.310Z,67.52
2019-03-18T22:00:30.200Z,68.16
2019-03-18T22:02:59.839Z,67.09
2019-03-18T22:05:29.451Z,67.52
2019-03-18T22:07:59.173Z,68.88
2019-03-18T22:10:28.784Z,69.52
2019-03-18T22:12:58.402Z,69.54
2019-03-18T22:15:28.044Z,70.55
2019-03-18T22:17:57.653Z,70.66
2019-03-18T22:20:27.294Z,70.26
2019-03-18T22:22:56.912Z,68.89
2019-03-18T22:25:26.551Z,69.62
2019-03-18T22:27:56.177Z,68.48
2019-03-18T22:30:25.817Z,69.11
2019-03-18T22:32:55.436Z,69.91
2019-03-18T22:35:25.076Z,69.92
2019-03-18T22:37:54.686Z,69.33
2019-03-18T22:40:24.392Z,69.90
2019-03-18T22:42:54.013Z,68.95
2019-03-18T22:45:23.675Z,68.58
2019-03-18T22:47:53.287Z,69.91
2019-03-18T22:50:22.906Z,70.62
2019-03-18T22:52:52.538Z,70.54
2019-03-18T22:55:22.146Z,70.69
2019-03-18T22:57:51.785Z,69.92
2019-03-18T23:00:35.049Z,68.91
2019-03-18T23:03:05.827Z,68.88
2019-03-18T23:05:35.502Z,69.19
2019-03-18T23:08:06.048Z,69.31
2019-03-18T23:10:35.725Z,70.26
2019-03-18T23:13:05.504Z,71.04
2019-03-18T23:15:35.179Z,70.42
2019-03-18T23:18:04.967Z,69.71
2019-03-18T23:20:34.576Z,69.45
2019-03-18T23:23:04.605Z,69.72
2019-03-18T23:25:34.217Z,69.29
2019-03-18T23:28:03.968Z,69.31
2019-03-18T23:30:33.613Z,69.90
2019-03-18T23:33:03.222Z,69.66
2019-03-18T23:35:32.863Z,70.34
2019-03-18T23:38:02.547Z,70.82
2019-03-18T23:40:32.187Z,70.53
2019-03-18T23:43:01.798Z,70.46
2019-03-18T23:45:31.435Z,71.54
2019-03-18T23:48:01.048Z,70.41
2019-03-18T23:50:30.689Z,70.29
2019-03-18T23:53:00.299Z,71.23
2019-03-18T23:55:29.950Z,71.29
2019-03-18T23:57:59.571Z,70.69
